createdAt,value
2017-01-13T00:00:53.070Z,0
2017-01-13T00:01:53.083Z,0
2017-01-13T00:02:53.089Z,0
2017-01-13T00:03:53.103Z,0
2017-01-13T00:04:53.116Z,0
2017-01-13T00:05:53.126Z,0
2017-01-13T00:06:53.140Z,0
2017-01-13T00:07:53.153Z,0
2017-01-13T00:08:53.169Z,0
2017-01-13T00:09:53.168Z,0
2017-01-13T00:10:53.186Z,0
2017-01-13T00:11:53.200Z,0
2017-01-13T00:12:53.209Z,0
2017-01-13T00:13:53.223Z,0
2017-01-13T00:14:53.232Z,0
2017-01-13T00:15:53.248Z,0
2017-01-13T00:16:53.262Z,0
2017-01-13T00:17:53.279Z,0
2017-01-13T00:18:53.278Z,0
2017-01-13T00:19:53.292Z,0
2017-01-13T00:20:53.303Z,0
2017-01-13T00:21:53.321Z,0
2017-01-13T00:22:53.329Z,0
2017-01-13T00:23:53.343Z,0
2017-01-13T00:24:53.362Z,0
2017-01-13T00:25:53.369Z,0
2017-01-13T00:26:53.382Z,0
2017-01-13T00:27:53.390Z,0
2017-01-13T00:28:53.404Z,0
2017-01-13T00:29:53.419Z,0
2017-01-13T00:30:53.434Z,0
2017-01-13T00:31:53.440Z,0
2017-01-13T00:32:53.449Z,0
2017-01-13T00:33:53.519Z,0
2017-01-13T00:34:53.474Z,0
2017-01-13T00:35:53.488Z,0
2017-01-13T00:36:53.504Z,0
2017-01-13T00:37:53.506Z,0
2017-01-13T00:38:53.525Z,0
2017-01-13T00:39:53.537Z,0
2017-01-13T00:40:53.552Z,0
2017-01-13T00:41:53.557Z,0
2017-01-13T00:42:53.575Z,0
2017-01-13T00:43:53.634Z,0
2017-01-13T00:44:53.596Z,0
2017-01-13T00:45:53.604Z,0
2017-01-13T00:46:53.616Z,0
2017-01-13T00:47:54.025Z,0
2017-01-13T00:48:53.649Z,0
2017-01-13T00:49:53.653Z,0
2017-01-13T00:50:53.665Z,0
2017-01-13T00:51:53.687Z,0
2017-01-13T00:52:53.693Z,0
2017-01-13T00:53:53.703Z,0
2017-01-13T00:54:53.710Z,0
2017-01-13T00:55:53.725Z,0
2017-01-13T00:56:53.734Z,0
2017-01-13T00:57:53.753Z,0
2017-01-13T00:58:53.762Z,0
2017-01-13T00:59:53.784Z,0
2017-01-13T01:00:53.786Z,0
2017-01-13T01:01:53.793Z,0
2017-01-13T01:02:53.814Z,0
2017-01-13T01:03:53.823Z,0
2017-01-13T01:04:53.832Z,0
2017-01-13T01:05:53.846Z,0
2017-01-13T01:06:53.855Z,0
2017-01-13T01:07:53.905Z,0
2017-01-13T01:08:53.885Z,0
2017-01-13T01:09:53.897Z,0
2017-01-13T01:10:53.900Z,0
2017-01-13T01:11:53.916Z,0
2017-01-13T01:12:53.940Z,0
2017-01-13T01:13:53.939Z,0
2017-01-13T01:14:53.959Z,0
2017-01-13T01:15:53.966Z,0
2017-01-13T01:16:53.971Z,0
2017-01-13T01:17:53.982Z,0
2017-01-13T01:18:53.999Z,0
2017-01-13T01:19:54.010Z,0
2017-01-13T01:20:54.020Z,0
2017-01-13T01:21:54.038Z,0
2017-01-13T01:22:54.077Z,0
2017-01-13T01:23:54.251Z,0
2017-01-13T01:24:54.068Z,0
2017-01-13T01:25:54.078Z,0
2017-01-13T01:26:54.095Z,0
2017-01-13T01:27:54.111Z,0
2017-01-13T01:28:54.117Z,0
2017-01-13T01:29:54.126Z,0
2017-01-13T01:30:54.142Z,0
2017-01-13T01:31:54.153Z,0
2017-01-13T01:32:54.189Z,0
2017-01-13T01:33:54.177Z,0
2017-01-13T01:34:54.192Z,0
2017-01-13T01:35:54.195Z,0
2017-01-13T01:36:54.213Z,0
2017-01-13T01:37:54.226Z,0
2017-01-13T01:38:54.239Z,0
2017-01-13T01:39:54.245Z,0
2017-01-13T01:40:54.263Z,0
2017-01-13T01:41:54.270Z,0
2017-01-13T01:42:54.285Z,0
2017-01-13T01:43:54.288Z,0
2017-01-13T01:44:54.305Z,0
2017-01-13T01:45:54.322Z,0
2017-01-13T01:46:54.328Z,0
2017-01-13T01:47:54.344Z,0
2017-01-13T01:48:54.355Z,0
2017-01-13T01:49:54.368Z,0
2017-01-13T01:50:54.374Z,0
2017-01-13T01:51:54.391Z,0
2017-01-13T01:52:54.798Z,0
2017-01-13T01:53:54.414Z,0
2017-01-13T01:54:54.427Z,0
2017-01-13T01:55:54.436Z,0
2017-01-13T01:56:54.449Z,0
2017-01-13T01:57:54.462Z,0
2017-01-13T01:58:54.472Z,0
2017-01-13T01:59:54.489Z,0
2017-01-13T02:00:54.504Z,0
2017-01-13T02:01:54.508Z,0
2017-01-13T02:02:54.532Z,0
2017-01-13T02:03:54.535Z,0
2017-01-13T02:04:54.544Z,0
2017-01-13T02:05:54.559Z,0
2017-01-13T02:06:54.643Z,0
2017-01-13T02:07:54.580Z,0
2017-01-13T02:08:54.599Z,0
2017-01-13T02:09:54.602Z,0
2017-01-13T02:10:54.619Z,0
2017-01-13T02:11:54.626Z,0
2017-01-13T02:12:54.637Z,0
2017-01-13T02:13:54.652Z,0
2017-01-13T02:14:54.741Z,0
2017-01-13T02:15:54.676Z,0
2017-01-13T02:16:54.688Z,0
2017-01-13T02:17:54.698Z,0
2017-01-13T02:18:54.717Z,0
2017-01-13T02:19:54.796Z,0
2017-01-13T02:20:54.767Z,0
2017-01-13T02:21:54.745Z,0
2017-01-13T02:22:54.763Z,0
2017-01-13T02:23:54.768Z,0
2017-01-13T02:24:54.785Z,0
2017-01-13T02:25:54.833Z,0
2017-01-13T02:26:54.806Z,0
2017-01-13T02:27:54.824Z,0
2017-01-13T02:28:55.228Z,0
2017-01-13T02:29:54.838Z,0
2017-01-13T02:30:54.857Z,0
2017-01-13T02:31:54.867Z,0
2017-01-13T02:32:54.876Z,0
2017-01-13T02:33:54.888Z,0
2017-01-13T02:34:54.903Z,0
2017-01-13T02:35:54.908Z,0
2017-01-13T02:36:54.929Z,0
2017-01-13T02:37:55.062Z,0
2017-01-13T02:38:54.948Z,0
2017-01-13T02:39:54.975Z,0
2017-01-13T02:40:54.969Z,0
2017-01-13T02:41:54.988Z,0
2017-01-13T02:42:55.000Z,0
2017-01-13T02:43:55.007Z,0
2017-01-13T02:44:55.071Z,0
2017-01-13T02:45:55.024Z,0
2017-01-13T02:46:55.042Z,0
2017-01-13T02:47:55.054Z,0
2017-01-13T02:48:55.065Z,0
2017-01-13T02:49:55.103Z,0
2017-01-13T02:50:55.273Z,0
2017-01-13T02:51:55.391Z,0
2017-01-13T02:52:55.284Z,0
2017-01-13T02:53:55.127Z,0
2017-01-13T02:54:55.135Z,0
2017-01-13T02:55:55.145Z,0
2017-01-13T02:56:55.157Z,0
2017-01-13T02:57:55.176Z,0
2017-01-13T02:58:55.187Z,0
2017-01-13T02:59:55.192Z,0
2017-01-13T03:00:55.205Z,0
2017-01-13T03:01:55.221Z,0
2017-01-13T03:02:55.233Z,0
2017-01-13T03:03:55.248Z,0
2017-01-13T03:04:55.260Z,0
2017-01-13T03:05:55.271Z,0
2017-01-13T03:06:55.277Z,0
2017-01-13T03:07:55.293Z,0
2017-01-13T03:08:55.301Z,0
2017-01-13T03:09:55.311Z,0
2017-01-13T03:10:55.321Z,0
2017-01-13T03:11:55.335Z,0
2017-01-13T03:12:55.341Z,0
2017-01-13T03:13:55.356Z,0
2017-01-13T03:14:55.374Z,0
2017-01-13T03:15:55.384Z,0
2017-01-13T03:16:55.405Z,0
2017-01-13T03:17:55.408Z,0
2017-01-13T03:18:55.419Z,0
2017-01-13T03:19:55.432Z,0
2017-01-13T03:20:55.443Z,0
2017-01-13T03:21:55.461Z,0
2017-01-13T03:22:55.465Z,0
2017-01-13T03:23:55.476Z,0
2017-01-13T03:24:55.483Z,0
2017-01-13T03:25:55.503Z,0
2017-01-13T03:26:55.509Z,0
2017-01-13T03:27:55.532Z,0
2017-01-13T03:28:55.564Z,0
2017-01-13T03:29:55.552Z,0
2017-01-13T03:30:55.565Z,0
2017-01-13T03:31:55.574Z,0
2017-01-13T03:32:55.581Z,0
2017-01-13T03:33:55.590Z,0
2017-01-13T03:34:55.604Z,0
2017-01-13T03:35:55.632Z,0
2017-01-13T03:36:55.634Z,0
2017-01-13T03:37:55.637Z,0
2017-01-13T03:38:55.656Z,0
2017-01-13T03:39:55.669Z,0
2017-01-13T03:40:55.675Z,0
2017-01-13T03:41:55.688Z,0
2017-01-13T03:42:55.704Z,0
2017-01-13T03:43:55.714Z,0
2017-01-13T03:44:55.748Z,0
2017-01-13T03:45:55.742Z,0
2017-01-13T03:46:55.744Z,0
2017-01-13T03:47:55.761Z,0
2017-01-13T03:48:55.769Z,0
2017-01-13T03:49:55.781Z,0
2017-01-13T03:50:55.792Z,0
2017-01-13T03:51:55.821Z,0
2017-01-13T03:52:55.814Z,0
2017-01-13T03:53:55.834Z,0
2017-01-13T03:54:55.841Z,0
2017-01-13T03:55:55.850Z,0
2017-01-13T03:56:55.858Z,0
2017-01-13T03:57:55.882Z,0
2017-01-13T03:58:55.890Z,0
2017-01-13T03:59:55.897Z,0
2017-01-13T04:00:55.917Z,0
2017-01-13T04:01:55.921Z,0
2017-01-13T04:02:55.932Z,0
2017-01-13T04:03:55.945Z,0
2017-01-13T04:04:55.957Z,0
2017-01-13T04:05:55.971Z,0
2017-01-13T04:06:55.986Z,0
2017-01-13T04:07:55.994Z,0
2017-01-13T04:08:56.003Z,0
2017-01-13T04:09:56.015Z,0
2017-01-13T04:10:56.053Z,0
2017-01-13T04:11:56.036Z,0
2017-01-13T04:12:56.052Z,0
2017-01-13T04:13:56.064Z,0
2017-01-13T04:14:56.073Z,0
2017-01-13T04:15:56.086Z,0
2017-01-13T04:16:56.107Z,0
2017-01-13T04:17:56.112Z,0
2017-01-13T04:18:56.118Z,0
2017-01-13T04:19:56.138Z,0
2017-01-13T04:20:56.144Z,0
2017-01-13T04:21:56.170Z,0
2017-01-13T04:22:56.169Z,0
2017-01-13T04:23:56.182Z,0
2017-01-13T04:24:56.202Z,0
2017-01-13T04:25:56.228Z,0
2017-01-13T04:26:56.214Z,0
2017-01-13T04:27:56.228Z,0
2017-01-13T04:28:56.236Z,0
2017-01-13T04:29:56.247Z,0
2017-01-13T04:30:56.267Z,0
2017-01-13T04:31:56.278Z,0
2017-01-13T04:32:56.290Z,0
2017-01-13T04:33:56.297Z,0
2017-01-13T04:34:56.306Z,0
2017-01-13T04:35:56.320Z,0
2017-01-13T04:36:56.333Z,0
2017-01-13T04:37:56.368Z,0
2017-01-13T04:38:56.362Z,0
2017-01-13T04:39:56.370Z,0
2017-01-13T04:40:56.403Z,0
2017-01-13T04:41:56.390Z,0
2017-01-13T04:42:56.396Z,0
2017-01-13T04:43:56.419Z,0
2017-01-13T04:44:56.426Z,0
2017-01-13T04:45:56.436Z,0
2017-01-13T04:46:56.457Z,0
2017-01-13T04:48:28.535Z,0
2017-01-13T04:48:56.469Z,0
2017-01-13T04:49:56.483Z,0
2017-01-13T04:50:56.496Z,0
2017-01-13T04:51:56.505Z,0
2017-01-13T04:52:56.519Z,0
2017-01-13T04:53:56.528Z,0
2017-01-13T04:54:56.543Z,0
2017-01-13T04:55:56.576Z,0
2017-01-13T04:56:56.569Z,0
2017-01-13T04:57:56.577Z,0
2017-01-13T04:58:56.591Z,0
2017-01-13T04:59:56.598Z,0
2017-01-13T05:00:56.615Z,0
2017-01-13T05:01:56.630Z,0
2017-01-13T05:02:56.634Z,0
2017-01-13T05:03:56.654Z,0
2017-01-13T05:04:56.656Z,0
2017-01-13T05:05:56.668Z,0
2017-01-13T05:06:56.680Z,0
2017-01-13T05:07:56.693Z,0
2017-01-13T05:08:56.700Z,0
2017-01-13T05:09:56.713Z,0
2017-01-13T05:10:56.759Z,0
2017-01-13T05:11:56.740Z,0
2017-01-13T05:12:56.774Z,0
2017-01-13T05:13:56.760Z,0
2017-01-13T05:14:56.776Z,0
2017-01-13T05:15:56.788Z,0
2017-01-13T05:16:56.801Z,0
2017-01-13T05:17:56.807Z,0
2017-01-13T05:18:56.821Z,0
2017-01-13T05:19:56.830Z,0
2017-01-13T05:20:56.845Z,0
2017-01-13T05:21:56.859Z,0
2017-01-13T05:22:56.866Z,0
2017-01-13T05:23:56.877Z,0
2017-01-13T05:24:56.890Z,0
2017-01-13T05:25:56.915Z,0
2017-01-13T05:26:56.918Z,0
2017-01-13T05:27:56.928Z,0
2017-01-13T05:28:56.948Z,0
2017-01-13T05:29:56.948Z,0
2017-01-13T05:30:56.968Z,0
2017-01-13T05:31:56.971Z,0
2017-01-13T05:32:56.985Z,0
2017-01-13T05:33:56.996Z,0
2017-01-13T05:34:57.011Z,0
2017-01-13T05:35:57.035Z,0
2017-01-13T05:36:57.032Z,0
2017-01-13T05:37:57.048Z,0
2017-01-13T05:38:57.056Z,0
2017-01-13T05:39:57.072Z,0
2017-01-13T05:40:57.078Z,0
2017-01-13T05:41:57.096Z,0
2017-01-13T05:42:57.106Z,0
2017-01-13T05:43:57.118Z,0
2017-01-13T05:44:57.127Z,0
2017-01-13T05:45:57.158Z,0
2017-01-13T05:46:57.146Z,0
2017-01-13T05:47:57.162Z,0
2017-01-13T05:48:57.178Z,0
2017-01-13T05:49:57.194Z,0
2017-01-13T05:50:57.206Z,0
2017-01-13T05:51:57.218Z,0
2017-01-13T05:52:57.222Z,0
2017-01-13T05:53:57.237Z,0
2017-01-13T05:54:57.246Z,0
2017-01-13T05:55:57.256Z,0
2017-01-13T05:56:57.269Z,0
2017-01-13T05:57:57.271Z,0
2017-01-13T05:58:57.298Z,0
2017-01-13T05:59:57.299Z,0
2017-01-13T06:00:57.312Z,0
2017-01-13T06:01:57.325Z,0
2017-01-13T06:02:57.333Z,0
2017-01-13T06:03:57.349Z,0
2017-01-13T06:04:57.357Z,0
2017-01-13T06:05:57.369Z,0
2017-01-13T06:06:57.385Z,0
2017-01-13T06:07:57.402Z,0
2017-01-13T06:08:57.406Z,0
2017-01-13T06:09:57.423Z,0
2017-01-13T06:10:57.432Z,0
2017-01-13T06:11:57.446Z,0
2017-01-13T06:12:57.455Z,0
2017-01-13T06:13:57.465Z,0
2017-01-13T06:14:57.476Z,0
2017-01-13T06:15:57.496Z,0
2017-01-13T06:16:57.509Z,0
2017-01-13T06:17:57.509Z,0
2017-01-13T06:18:57.525Z,0
2017-01-13T06:19:57.534Z,0
2017-01-13T06:20:57.549Z,0
2017-01-13T06:21:57.555Z,0
2017-01-13T06:22:57.572Z,0
2017-01-13T06:23:57.583Z,0
2017-01-13T06:24:57.598Z,0
2017-01-13T06:25:57.612Z,0
2017-01-13T06:26:57.641Z,0
2017-01-13T06:27:57.635Z,0
2017-01-13T06:28:57.645Z,0
2017-01-13T06:29:57.653Z,0
2017-01-13T06:30:57.667Z,0
2017-01-13T06:31:57.679Z,0
2017-01-13T06:32:57.687Z,0
2017-01-13T06:33:57.706Z,0
2017-01-13T06:34:57.709Z,0
2017-01-13T06:35:57.725Z,0
2017-01-13T06:36:57.739Z,0
2017-01-13T06:37:57.773Z,0
2017-01-13T06:38:57.764Z,0
2017-01-13T06:39:57.765Z,0
2017-01-13T06:40:57.788Z,0
2017-01-13T06:41:57.794Z,0
2017-01-13T06:42:57.807Z,0
2017-01-13T06:43:57.813Z,0
2017-01-13T06:44:57.836Z,0
2017-01-13T06:45:57.838Z,0
2017-01-13T06:46:57.853Z,0
2017-01-13T06:47:57.862Z,0
2017-01-13T06:48:57.879Z,0
2017-01-13T06:49:57.892Z,0
2017-01-13T06:50:57.893Z,0
2017-01-13T06:51:57.911Z,0
2017-01-13T06:52:57.920Z,0
2017-01-13T06:53:57.953Z,4
2017-01-13T06:54:57.954Z,4
2017-01-13T06:55:57.959Z,4
2017-01-13T06:56:57.976Z,0
2017-01-13T06:57:57.982Z,0
2017-01-13T06:58:57.994Z,4
2017-01-13T06:59:58.004Z,4
2017-01-13T07:00:58.017Z,4
2017-01-13T07:01:58.029Z,4
2017-01-13T07:02:58.040Z,4
2017-01-13T07:03:58.054Z,4
2017-01-13T07:04:58.067Z,8
2017-01-13T07:05:58.072Z,4
2017-01-13T07:06:58.095Z,8
2017-01-13T07:07:58.109Z,8
2017-01-13T07:08:58.110Z,8
2017-01-13T07:09:58.124Z,8
2017-01-13T07:10:58.135Z,8
2017-01-13T07:11:58.147Z,12
2017-01-13T07:12:58.154Z,12
2017-01-13T07:13:58.172Z,12
2017-01-13T07:14:58.181Z,16
2017-01-13T07:15:58.190Z,12
2017-01-13T07:16:58.209Z,12
2017-01-13T07:17:58.209Z,16
2017-01-13T07:18:58.227Z,20
2017-01-13T07:19:58.240Z,16
2017-01-13T07:20:58.248Z,20
2017-01-13T07:21:58.256Z,20
2017-01-13T07:22:58.286Z,24
2017-01-13T07:23:58.291Z,28
2017-01-13T07:24:58.305Z,28
2017-01-13T07:25:58.323Z,32
2017-01-13T07:26:58.325Z,32
2017-01-13T07:27:58.331Z,28
2017-01-13T07:28:58.340Z,28
2017-01-13T07:29:58.354Z,32
2017-01-13T07:30:58.368Z,36
2017-01-13T07:31:58.376Z,40
2017-01-13T07:32:58.396Z,40
2017-01-13T07:33:58.400Z,40
2017-01-13T07:34:58.415Z,44
2017-01-13T07:35:58.428Z,48
2017-01-13T07:36:58.445Z,68
2017-01-13T07:37:58.451Z,72
2017-01-13T07:38:58.460Z,88
2017-01-13T07:39:58.476Z,84
2017-01-13T07:40:58.484Z,100
2017-01-13T07:41:58.498Z,84
2017-01-13T07:42:58.507Z,96
2017-01-13T07:43:58.515Z,104
2017-01-13T07:44:58.530Z,112
2017-01-13T07:45:58.547Z,124
2017-01-13T07:46:58.551Z,116
2017-01-13T07:47:58.572Z,132
2017-01-13T07:48:58.587Z,164
2017-01-13T07:49:58.590Z,168
2017-01-13T07:50:58.601Z,184
2017-01-13T07:51:58.617Z,184
2017-01-13T07:52:58.627Z,188
2017-01-13T07:53:58.632Z,176
2017-01-13T07:54:58.660Z,184
2017-01-13T07:55:58.659Z,176
2017-01-13T07:56:58.669Z,176
2017-01-13T07:57:58.683Z,156
2017-01-13T07:58:58.699Z,152
2017-01-13T07:59:58.709Z,132
2017-01-13T08:00:58.724Z,132
2017-01-13T08:01:58.739Z,112
2017-01-13T08:02:58.764Z,120
2017-01-13T08:03:58.765Z,120
2017-01-13T08:04:58.765Z,136
2017-01-13T08:05:58.778Z,148
2017-01-13T08:06:58.823Z,144
2017-01-13T08:07:58.823Z,164
2017-01-13T08:08:58.812Z,148
2017-01-13T08:09:58.828Z,152
2017-01-13T08:10:58.839Z,128
2017-01-13T08:11:58.850Z,116
2017-01-13T08:12:58.858Z,120
2017-01-13T08:13:58.873Z,140
2017-01-13T08:14:58.882Z,160
2017-01-13T08:15:58.895Z,164
2017-01-13T08:16:58.907Z,168
2017-01-13T08:17:58.918Z,164
2017-01-13T08:18:58.929Z,180
2017-01-13T08:19:58.942Z,180
2017-01-13T08:20:58.955Z,200
2017-01-13T08:21:58.963Z,176
2017-01-13T08:22:58.972Z,196
2017-01-13T08:23:58.992Z,228
2017-01-13T08:24:58.999Z,220
2017-01-13T08:25:59.015Z,232
2017-01-13T08:26:59.026Z,200
2017-01-13T08:27:59.042Z,248
2017-01-13T08:28:59.050Z,212
2017-01-13T08:29:59.059Z,188
2017-01-13T08:30:59.067Z,184
2017-01-13T08:31:59.081Z,176
2017-01-13T08:32:59.089Z,128
2017-01-13T08:33:59.102Z,132
2017-01-13T08:34:59.113Z,132
2017-01-13T08:35:59.126Z,132
2017-01-13T08:36:59.139Z,112
2017-01-13T08:37:59.149Z,164
2017-01-13T08:38:59.161Z,136
2017-01-13T08:39:59.170Z,156
2017-01-13T08:40:59.185Z,148
2017-01-13T08:41:59.193Z,180
2017-01-13T08:42:59.208Z,148
2017-01-13T08:43:59.218Z,112
2017-01-13T08:44:59.228Z,124
2017-01-13T08:45:59.247Z,88
2017-01-13T08:46:59.268Z,136
2017-01-13T08:47:59.269Z,120
2017-01-13T08:48:59.279Z,96
2017-01-13T08:49:59.294Z,96
2017-01-13T08:50:59.334Z,104
2017-01-13T08:51:59.315Z,92
2017-01-13T08:52:59.319Z,112
2017-01-13T08:53:59.339Z,96
2017-01-13T08:54:59.345Z,112
2017-01-13T08:55:59.356Z,104
2017-01-13T08:56:59.370Z,96
2017-01-13T08:57:59.381Z,120
2017-01-13T08:58:59.388Z,92
2017-01-13T08:59:59.404Z,96
2017-01-13T09:00:59.416Z,92
2017-01-13T09:01:59.431Z,76
2017-01-13T09:02:59.434Z,80
2017-01-13T09:03:59.449Z,104
2017-01-13T09:04:59.462Z,100
2017-01-13T09:05:59.584Z,128
2017-01-13T09:06:59.488Z,120
2017-01-13T09:07:59.523Z,108
2017-01-13T09:08:59.506Z,112
2017-01-13T09:09:59.523Z,108
2017-01-13T09:10:59.533Z,116
2017-01-13T09:11:59.540Z,120
2017-01-13T09:12:59.560Z,156
2017-01-13T09:13:59.564Z,124
2017-01-13T09:14:59.579Z,144
2017-01-13T09:15:59.593Z,140
2017-01-13T09:16:59.599Z,160
2017-01-13T09:17:59.611Z,152
2017-01-13T09:18:59.633Z,128
2017-01-13T09:19:59.644Z,152
2017-01-13T09:20:59.644Z,180
2017-01-13T09:21:59.656Z,200
2017-01-13T09:22:59.673Z,252
2017-01-13T09:23:59.681Z,252
2017-01-13T09:24:59.688Z,256
2017-01-13T09:25:59.706Z,228
2017-01-13T09:26:59.742Z,296
2017-01-13T09:27:59.724Z,232
2017-01-13T09:28:59.737Z,244
2017-01-13T09:29:59.748Z,296
2017-01-13T09:30:59.758Z,280
2017-01-13T09:31:59.775Z,244
2017-01-13T09:32:59.780Z,216
2017-01-13T09:33:59.793Z,196
2017-01-13T09:34:59.806Z,192
2017-01-13T09:35:59.817Z,168
2017-01-13T09:36:59.828Z,204
2017-01-13T09:37:59.835Z,216
2017-01-13T09:38:59.851Z,268
2017-01-13T09:39:59.868Z,220
2017-01-13T09:40:59.877Z,228
2017-01-13T09:41:59.886Z,200
2017-01-13T09:42:59.894Z,220
2017-01-13T09:43:59.910Z,204
2017-01-13T09:44:59.925Z,240
2017-01-13T09:45:59.930Z,336
2017-01-13T09:46:59.940Z,368
2017-01-13T09:47:59.992Z,360
2017-01-13T09:48:59.964Z,276
2017-01-13T09:49:59.980Z,220
2017-01-13T09:50:59.983Z,244
2017-01-13T09:51:59.994Z,204
2017-01-13T09:53:00.010Z,272
2017-01-13T09:54:00.017Z,264
2017-01-13T09:55:00.432Z,260
2017-01-13T09:56:00.049Z,212
2017-01-13T09:57:00.052Z,232
2017-01-13T09:58:00.068Z,240
2017-01-13T09:59:00.077Z,248
2017-01-13T10:00:00.087Z,232
2017-01-13T10:01:00.520Z,260
2017-01-13T10:02:00.137Z,176
2017-01-13T10:03:00.129Z,196
2017-01-13T10:04:00.142Z,224
2017-01-13T10:05:00.145Z,216
2017-01-13T10:06:00.155Z,248
2017-01-13T10:07:00.175Z,252
2017-01-13T10:08:00.179Z,252
2017-01-13T10:09:00.189Z,308
2017-01-13T10:10:00.605Z,404
2017-01-13T10:11:00.212Z,356
2017-01-13T10:12:00.234Z,248
2017-01-13T10:13:00.235Z,196
2017-01-13T10:14:00.252Z,180
2017-01-13T10:15:00.269Z,160
2017-01-13T10:16:00.272Z,136
2017-01-13T10:17:00.285Z,140
2017-01-13T10:18:00.290Z,168
2017-01-13T10:19:00.304Z,176
2017-01-13T10:20:00.326Z,184
2017-01-13T10:21:00.330Z,152
2017-01-13T10:22:00.347Z,128
2017-01-13T10:23:00.745Z,116
2017-01-13T10:24:00.364Z,132
2017-01-13T10:25:00.375Z,148
2017-01-13T10:26:00.392Z,112
2017-01-13T10:27:00.391Z,136
2017-01-13T10:28:00.412Z,180
2017-01-13T10:29:00.420Z,208
2017-01-13T10:30:00.430Z,152
2017-01-13T10:31:00.452Z,136
2017-01-13T10:32:00.478Z,172
2017-01-13T10:33:00.459Z,156
2017-01-13T10:34:00.481Z,196
2017-01-13T10:35:00.481Z,200
2017-01-13T10:36:00.502Z,144
2017-01-13T10:37:00.517Z,140
2017-01-13T10:38:00.915Z,156
2017-01-13T10:39:00.532Z,160
2017-01-13T10:40:00.544Z,184
2017-01-13T10:41:00.552Z,196
2017-01-13T10:42:00.955Z,148
2017-01-13T10:43:00.586Z,180
2017-01-13T10:44:00.592Z,192
2017-01-13T10:45:00.601Z,176
2017-01-13T10:46:00.616Z,244
2017-01-13T10:47:00.629Z,196
2017-01-13T10:48:00.644Z,244
2017-01-13T10:49:00.641Z,156
2017-01-13T10:50:00.660Z,184
2017-01-13T10:51:00.665Z,236
2017-01-13T10:52:00.687Z,192
2017-01-13T10:53:00.692Z,140
2017-01-13T10:54:00.705Z,224
2017-01-13T10:55:00.716Z,200
2017-01-13T10:56:00.723Z,284
2017-01-13T10:57:00.739Z,252
2017-01-13T10:58:00.749Z,200
2017-01-13T10:59:00.758Z,196
2017-01-13T11:00:00.777Z,308
2017-01-13T11:01:01.176Z,172
2017-01-13T11:02:00.804Z,252
2017-01-13T11:03:00.807Z,244
2017-01-13T11:04:00.822Z,244
2017-01-13T11:05:00.837Z,248
2017-01-13T11:06:00.839Z,160
2017-01-13T11:07:00.847Z,292
2017-01-13T11:08:00.857Z,152
2017-01-13T11:09:00.870Z,212
2017-01-13T11:10:00.874Z,308
2017-01-13T11:11:00.921Z,260
2017-01-13T11:12:00.901Z,296
2017-01-13T11:13:00.912Z,224
2017-01-13T11:14:00.953Z,192
2017-01-13T11:15:00.938Z,220
2017-01-13T11:16:00.967Z,244
2017-01-13T11:17:00.962Z,268
2017-01-13T11:18:00.986Z,236
2017-01-13T11:19:00.984Z,268
2017-01-13T11:20:01.015Z,240
2017-01-13T11:21:01.007Z,288
2017-01-13T11:22:01.015Z,208
2017-01-13T11:23:01.028Z,220
2017-01-13T11:24:01.056Z,252
2017-01-13T11:25:01.046Z,216
2017-01-13T11:26:01.084Z,196
2017-01-13T11:27:01.070Z,260
2017-01-13T11:28:01.095Z,224
2017-01-13T11:29:01.096Z,200
2017-01-13T11:30:01.112Z,244
2017-01-13T11:31:01.117Z,196
2017-01-13T11:32:01.146Z,180
2017-01-13T11:33:01.140Z,208
2017-01-13T11:34:01.158Z,176
2017-01-13T11:35:01.163Z,188
2017-01-13T11:36:01.190Z,180
2017-01-13T11:37:01.179Z,164
2017-01-13T11:38:01.194Z,172
2017-01-13T11:39:01.209Z,184
2017-01-13T11:40:01.230Z,168
2017-01-13T11:41:01.230Z,180
2017-01-13T11:42:01.239Z,184
2017-01-13T11:43:01.250Z,184
2017-01-13T11:44:01.263Z,172
2017-01-13T11:45:01.269Z,176
2017-01-13T11:46:01.281Z,168
2017-01-13T11:47:01.293Z,156
2017-01-13T11:48:01.311Z,176
2017-01-13T11:49:01.313Z,200
2017-01-13T11:50:01.323Z,208
2017-01-13T11:51:01.341Z,188
2017-01-13T11:52:01.346Z,200
2017-01-13T11:53:01.400Z,200
2017-01-13T11:54:01.378Z,224
2017-01-13T11:55:01.386Z,188
2017-01-13T11:56:01.396Z,208
2017-01-13T11:57:01.405Z,224
2017-01-13T11:58:01.419Z,216
2017-01-13T11:59:01.425Z,204
2017-01-13T12:00:01.437Z,160
2017-01-13T12:01:01.446Z,176
2017-01-13T12:02:01.463Z,200
2017-01-13T12:03:01.474Z,180
2017-01-13T12:04:01.476Z,164
2017-01-13T12:05:01.494Z,224
2017-01-13T12:06:01.498Z,216
2017-01-13T12:07:01.516Z,236
2017-01-13T12:08:01.524Z,224
2017-01-13T12:09:01.534Z,184
2017-01-13T12:10:01.556Z,188
2017-01-13T12:11:01.557Z,224
2017-01-13T12:12:01.566Z,256
2017-01-13T12:13:01.586Z,192
2017-01-13T12:14:01.587Z,224
2017-01-13T12:15:01.599Z,212
2017-01-13T12:16:01.620Z,248
2017-01-13T12:17:01.623Z,176
2017-01-13T12:18:01.627Z,260
2017-01-13T12:19:01.643Z,236
2017-01-13T12:20:01.663Z,224
2017-01-13T12:21:01.668Z,196
2017-01-13T12:22:01.675Z,212
2017-01-13T12:23:01.693Z,188
2017-01-13T12:24:01.704Z,272
2017-01-13T12:25:01.707Z,252
2017-01-13T12:26:01.725Z,232
2017-01-13T12:27:02.123Z,224
2017-01-13T12:28:01.740Z,236
2017-01-13T12:29:01.754Z,328
2017-01-13T12:30:01.768Z,252
2017-01-13T12:31:01.774Z,280
2017-01-13T12:32:01.789Z,264
2017-01-13T12:33:01.807Z,240
2017-01-13T12:34:01.823Z,292
2017-01-13T12:35:01.817Z,248
2017-01-13T12:36:01.833Z,284
2017-01-13T12:37:01.846Z,264
2017-01-13T12:38:01.853Z,256
2017-01-13T12:39:01.864Z,268
2017-01-13T12:40:01.916Z,272
2017-01-13T12:41:01.878Z,268
2017-01-13T12:42:01.890Z,372
2017-01-13T12:43:01.904Z,380
2017-01-13T12:44:01.915Z,276
2017-01-13T12:45:01.925Z,228
2017-01-13T12:46:01.938Z,316
2017-01-13T12:47:01.946Z,368
2017-01-13T12:48:01.962Z,384
2017-01-13T12:49:01.966Z,352
2017-01-13T12:50:01.976Z,404
2017-01-13T12:51:02.000Z,336
2017-01-13T12:52:02.003Z,332
2017-01-13T12:53:02.007Z,276
2017-01-13T12:54:02.019Z,320
2017-01-13T12:55:02.034Z,292
2017-01-13T12:56:02.039Z,252
2017-01-13T12:57:02.064Z,284
2017-01-13T12:58:02.066Z,256
2017-01-13T12:59:02.076Z,208
2017-01-13T13:00:02.089Z,320
2017-01-13T13:01:02.100Z,252
2017-01-13T13:02:02.106Z,296
2017-01-13T13:03:02.127Z,380
2017-01-13T13:04:02.129Z,340
2017-01-13T13:05:02.144Z,224
2017-01-13T13:06:02.156Z,216
2017-01-13T13:07:02.165Z,372
2017-01-13T13:08:02.171Z,244
2017-01-13T13:09:02.184Z,240
2017-01-13T13:10:02.204Z,280
2017-01-13T13:11:02.203Z,236
2017-01-13T13:12:02.216Z,200
2017-01-13T13:13:02.225Z,188
2017-01-13T13:14:02.246Z,192
2017-01-13T13:15:02.248Z,184
2017-01-13T13:16:02.259Z,168
2017-01-13T13:17:02.268Z,244
2017-01-13T13:18:02.279Z,188
2017-01-13T13:19:02.296Z,216
2017-01-13T13:20:02.300Z,208
2017-01-13T13:21:02.314Z,200
2017-01-13T13:22:02.334Z,148
2017-01-13T13:23:02.336Z,196
2017-01-13T13:24:02.358Z,180
2017-01-13T13:25:02.358Z,140
2017-01-13T13:26:02.365Z,212
2017-01-13T13:27:02.386Z,168
2017-01-13T13:28:02.385Z,172
2017-01-13T13:29:02.399Z,216
2017-01-13T13:30:02.433Z,208
2017-01-13T13:31:02.420Z,160
2017-01-13T13:32:02.431Z,208
2017-01-13T13:33:02.451Z,228
2017-01-13T13:34:02.453Z,160
2017-01-13T13:35:02.465Z,164
2017-01-13T13:36:02.879Z,160
2017-01-13T13:37:02.488Z,144
2017-01-13T13:38:02.498Z,168
2017-01-13T13:39:02.504Z,228
2017-01-13T13:40:02.514Z,168
2017-01-13T13:41:02.528Z,220
2017-01-13T13:42:02.543Z,204
2017-01-13T13:43:02.551Z,176
2017-01-13T13:44:02.570Z,168
2017-01-13T13:45:02.575Z,240
2017-01-13T13:46:02.604Z,204
2017-01-13T13:47:02.592Z,216
2017-01-13T13:48:02.601Z,208
2017-01-13T13:49:02.624Z,208
2017-01-13T13:50:02.625Z,196
2017-01-13T13:51:02.641Z,152
2017-01-13T13:52:02.654Z,200
2017-01-13T13:53:02.656Z,196
2017-01-13T13:54:02.691Z,232
2017-01-13T13:55:02.678Z,232
2017-01-13T13:56:02.698Z,228
2017-01-13T13:57:02.702Z,160
2017-01-13T13:58:02.737Z,164
2017-01-13T13:59:02.717Z,228
2017-01-13T14:00:02.742Z,184
2017-01-13T14:01:02.762Z,188
2017-01-13T14:02:02.772Z,232
2017-01-13T14:03:02.761Z,168
2017-01-13T14:04:02.798Z,188
2017-01-13T14:05:02.814Z,208
2017-01-13T14:06:02.816Z,148
2017-01-13T14:07:02.806Z,116
2017-01-13T14:08:02.831Z,184
2017-01-13T14:09:02.829Z,192
2017-01-13T14:10:02.851Z,148
2017-01-13T14:11:02.847Z,140
2017-01-13T14:12:02.863Z,184
2017-01-13T14:13:02.867Z,116
2017-01-13T14:14:02.895Z,96
2017-01-13T14:15:02.898Z,104
2017-01-13T14:16:02.911Z,96
2017-01-13T14:17:02.918Z,96
2017-01-13T14:18:02.922Z,96